Time;durP1;ratioP1;P1;durP2;ratioP2;P2;SDS_P1;SDS_P2;PMS_P1;PMS_P2;Temp;Humidity;BMP_temperature;BMP_pressure;BME280_temperature;BME280_humidity;BME280_pressure;Samples;Min_cycle;Max_cycle;Signal;HPM_P1;HPM_P2
2022/02/15 00:00:39;;;;;;;2.65;1.45;;;;;;;;;;5021452;28;20064;-68
2022/02/15 00:03:08;;;;;;;5.50;1.80;;;;;;;;;;5028585;28;20061;-68
2022/02/15 00:05:35;;;;;;;2.53;1.50;;;;;;;;;;5021061;28;20065;-68
2022/02/15 00:08:01;;;;;;;4.70;1.40;;;;;;;;;;5024848;28;20053;-68
2022/02/15 00:10:28;;;;;;;3.45;1.70;;;;;;;;;;5016848;28;20052;-69
2022/02/15 00:12:54;;;;;;;2.67;1.65;;;;;;;;;;5026983;28;20060;-68
2022/02/15 00:15:20;;;;;;;5.03;1.73;;;;;;;;;;5027800;28;20054;-68
2022/02/15 00:17:46;;;;;;;9.38;2.33;;;;;;;;;;5003570;28;20061;-68
2022/02/15 00:20:13;;;;;;;4.15;1.90;;;;;;;;;;5028367;28;20767;-68
2022/02/15 00:22:39;;;;;;;3.17;2.00;;;;;;;;;;5015272;28;20661;-68
2022/02/15 00:25:06;;;;;;;6.10;2.60;;;;;;;;;;5023624;28;20708;-68
2022/02/15 00:27:32;;;;;;;5.93;2.90;;;;;;;;;;5021151;28;20422;-68
2022/02/15 00:29:58;;;;;;;6.95;3.25;;;;;;;;;;5026879;28;20045;-69
2022/02/15 00:32:25;;;;;;;5.47;2.42;;;;;;;;;;5027681;28;20049;-68
2022/02/15 00:34:51;;;;;;;7.55;3.20;;;;;;;;;;5020999;28;20415;-68
2022/02/15 00:37:17;;;;;;;6.15;3.28;;;;;;;;;;5023739;28;20048;-68
2022/02/15 00:39:44;;;;;;;4.75;2.80;;;;;;;;;;5016254;28;20049;-68
2022/02/15 00:42:10;;;;;;;6.55;3.50;;;;;;;;;;5028406;28;20390;-68
2022/02/15 00:44:36;;;;;;;6.85;3.42;;;;;;;;;;5024286;28;20049;-68
2022/02/15 00:47:03;;;;;;;6.50;3.60;;;;;;;;;;5025936;28;20565;-69
2022/02/15 00:49:29;;;;;;;10.80;4.40;;;;;;;;;;5027971;28;20049;-68
2022/02/15 00:51:55;;;;;;;9.20;3.80;;;;;;;;;;5013282;28;20049;-68
2022/02/15 00:54:22;;;;;;;8.75;4.05;;;;;;;;;;5023679;28;20513;-69
2022/02/15 00:56:48;;;;;;;9.55;3.67;;;;;;;;;;5020031;28;20380;-69
2022/02/15 00:59:14;;;;;;;11.35;3.67;;;;;;;;;;5028250;28;20045;-68
2022/02/15 01:01:41;;;;;;;8.27;3.90;;;;;;;;;;5021598;28;20053;-68
2022/02/15 01:04:07;;;;;;;10.00;4.28;;;;;;;;;;5022623;28;20064;-68
2022/02/15 01:06:33;;;;;;;12.45;4.32;;;;;;;;;;5023221;28;20050;-69
2022/02/15 01:09:00;;;;;;;7.63;3.60;;;;;;;;;;5019621;28;20049;-68
2022/02/15 01:11:26;;;;;;;10.93;3.88;;;;;;;;;;5027263;28;20056;-68
2022/02/15 01:13:52;;;;;;;8.70;3.92;;;;;;;;;;5022311;28;20045;-68
2022/02/15 01:16:18;;;;;;;8.77;4.25;;;;;;;;;;5027944;28;20045;-68
2022/02/15 01:18:45;;;;;;;9.07;4.57;;;;;;;;;;5022703;28;20057;-68
2022/02/15 01:21:11;;;;;;;10.35;5.05;;;;;;;;;;5016262;28;20054;-68
2022/02/15 01:23:37;;;;;;;13.32;4.93;;;;;;;;;;5027259;28;20526;-68
2022/02/15 01:26:04;;;;;;;9.25;4.93;;;;;;;;;;5020191;28;20061;-68
2022/02/15 01:28:34;;;;;;;10.05;4.50;;;;;;;;;;5010379;28;20050;-68
2022/02/15 01:31:01;;;;;;;11.73;5.25;;;;;;;;;;5019956;28;20049;-68
2022/02/15 01:33:28;;;;;;;8.65;5.03;;;;;;;;;;5022702;28;20049;-68
2022/02/15 01:35:54;;;;;;;10.20;5.32;;;;;;;;;;5021431;28;20056;-68
2022/02/15 01:38:20;;;;;;;8.60;4.40;;;;;;;;;;5021400;28;20056;-68
2022/02/15 01:40:47;;;;;;;13.68;5.22;;;;;;;;;;5027715;28;20053;-69
2022/02/15 01:43:13;;;;;;;11.93;4.93;;;;;;;;;;5019973;28;20425;-68
2022/02/15 01:45:39;;;;;;;12.27;5.40;;;;;;;;;;5026521;28;20049;-68
2022/02/15 01:48:05;;;;;;;13.02;5.10;;;;;;;;;;5013942;28;20084;-69
2022/02/15 01:50:32;;;;;;;10.35;4.82;;;;;;;;;;5026999;28;20053;-68
2022/02/15 01:52:58;;;;;;;11.65;4.65;;;;;;;;;;5027301;28;20049;-69
2022/02/15 01:55:24;;;;;;;9.00;5.10;;;;;;;;;;5018581;28;20049;-68
2022/02/15 01:57:51;;;;;;;13.18;4.80;;;;;;;;;;5027093;28;20065;-69
2022/02/15 02:00:18;;;;;;;10.77;5.05;;;;;;;;;;5016048;28;20115;-69
2022/02/15 02:02:45;;;;;;;8.98;5.22;;;;;;;;;;5021343;28;20060;-68
2022/02/15 02:07:57;;;;;;;10.57;4.70;;;;;;;;;;5036588;28;20056;-69
2022/02/15 02:10:23;;;;;;;11.32;5.20;;;;;;;;;;5040596;28;20057;-68
2022/02/15 02:12:49;;;;;;;11.07;5.57;;;;;;;;;;5046210;28;20053;-69
2022/02/15 02:15:20;;;;;;;11.63;5.18;;;;;;;;;;5042266;28;20060;-69
2022/02/15 02:17:47;;;;;;;11.05;5.25;;;;;;;;;;5016318;28;20053;-69
2022/02/15 02:20:13;;;;;;;10.45;5.35;;;;;;;;;;5026229;28;20060;-69
2022/02/15 02:22:40;;;;;;;11.48;5.85;;;;;;;;;;5018352;28;20444;-69
2022/02/15 02:25:07;;;;;;;10.50;5.07;;;;;;;;;;5027035;28;20049;-69
2022/02/15 02:27:33;;;;;;;13.45;4.45;;;;;;;;;;5018485;28;20049;-68
2022/02/15 02:30:00;;;;;;;12.98;4.88;;;;;;;;;;5018201;28;20053;-68
2022/02/15 02:32:27;;;;;;;11.52;4.55;;;;;;;;;;5025430;28;20505;-69
2022/02/15 02:34:56;;;;;;;12.13;4.50;;;;;;;;;;5019448;28;20575;-68
2022/02/15 02:37:23;;;;;;;12.32;4.30;;;;;;;;;;5026484;28;20053;-68
2022/02/15 02:39:52;;;;;;;10.30;4.40;;;;;;;;;;5019379;28;20053;-68
2022/02/15 02:42:20;;;;;;;8.10;3.95;;;;;;;;;;5006642;28;20065;-69
2022/02/15 02:44:47;;;;;;;7.78;3.30;;;;;;;;;;4993965;28;20049;-68
2022/02/15 02:47:13;;;;;;;7.72;3.63;;;;;;;;;;5005909;28;20058;-69
2022/02/15 02:49:40;;;;;;;12.38;3.67;;;;;;;;;;5003168;28;20045;-68
2022/02/15 02:52:07;;;;;;;7.63;3.17;;;;;;;;;;5000692;28;20065;-69
2022/02/15 02:54:33;;;;;;;9.80;3.35;;;;;;;;;;5022759;28;20061;-69
2022/02/15 02:57:02;;;;;;;9.30;3.00;;;;;;;;;;5013453;28;20371;-70
2022/02/15 02:59:29;;;;;;;8.35;3.05;;;;;;;;;;5022170;28;20053;-69
2022/02/15 03:01:55;;;;;;;7.25;2.88;;;;;;;;;;5018572;28;20418;-69
2022/02/15 03:04:21;;;;;;;5.57;2.80;;;;;;;;;;5024716;28;20392;-69
2022/02/15 03:06:48;;;;;;;10.20;2.85;;;;;;;;;;5025200;28;20064;-69
2022/02/15 03:09:14;;;;;;;8.27;3.00;;;;;;;;;;5016144;28;20061;-70
2022/02/15 03:11:41;;;;;;;13.23;3.55;;;;;;;;;;5011759;28;20059;-69
2022/02/15 03:14:08;;;;;;;5.13;2.70;;;;;;;;;;5019352;28;20057;-69
2022/02/15 03:16:35;;;;;;;8.05;3.08;;;;;;;;;;5026770;28;20057;-69
2022/02/15 03:19:02;;;;;;;6.57;2.90;;;;;;;;;;5019771;28;20417;-69
2022/02/15 03:21:28;;;;;;;7.18;2.72;;;;;;;;;;5026480;28;20056;-69
2022/02/15 03:23:54;;;;;;;6.43;2.83;;;;;;;;;;5021683;28;20498;-68
2022/02/15 03:26:21;;;;;;;6.28;3.03;;;;;;;;;;5013513;28;20470;-69
2022/02/15 03:28:47;;;;;;;8.07;2.72;;;;;;;;;;5025335;28;20049;-69
2022/02/15 03:31:14;;;;;;;8.43;3.17;;;;;;;;;;5019190;28;20162;-68
2022/02/15 03:33:41;;;;;;;7.75;3.10;;;;;;;;;;5029616;28;20049;-69
2022/02/15 03:36:07;;;;;;;9.43;3.20;;;;;;;;;;5023815;28;20670;-68
2022/02/15 03:38:33;;;;;;;6.85;3.20;;;;;;;;;;5023853;28;20056;-68
2022/02/15 03:43:45;;;;;;;7.95;3.38;;;;;;;;;;5022086;28;20062;-68
2022/02/15 03:46:11;;;;;;;9.52;2.95;;;;;;;;;;5028903;28;20132;-68
2022/02/15 03:48:37;;;;;;;6.25;3.50;;;;;;;;;;5038162;28;20080;-69
2022/02/15 03:51:04;;;;;;;7.13;3.28;;;;;;;;;;5048683;28;20044;-68
2022/02/15 03:53:30;;;;;;;8.15;3.30;;;;;;;;;;5022253;28;20064;-69
2022/02/15 03:55:56;;;;;;;9.73;3.25;;;;;;;;;;5025519;28;20076;-69
2022/02/15 03:58:23;;;;;;;5.82;3.25;;;;;;;;;;5028606;28;20060;-69
2022/02/15 04:00:50;;;;;;;8.65;3.67;;;;;;;;;;5020968;28;20541;-69
2022/02/15 04:03:16;;;;;;;7.20;3.38;;;;;;;;;;5029440;28;20045;-69
2022/02/15 04:05:42;;;;;;;9.80;3.38;;;;;;;;;;5017366;28;20053;-69
2022/02/15 04:08:09;;;;;;;10.82;3.80;;;;;;;;;;5023927;28;20053;-69
2022/02/15 04:10:35;;;;;;;11.48;3.47;;;;;;;;;;5021987;28;20052;-70
2022/02/15 04:13:01;;;;;;;9.57;3.20;;;;;;;;;;5010476;28;20231;-69
2022/02/15 04:15:28;;;;;;;8.25;3.40;;;;;;;;;;5029154;28;20064;-69
2022/02/15 04:17:54;;;;;;;8.13;3.40;;;;;;;;;;5020497;28;20054;-69
2022/02/15 04:20:20;;;;;;;11.60;4.13;;;;;;;;;;5024126;28;20068;-69
2022/02/15 04:22:47;;;;;;;10.95;3.58;;;;;;;;;;5016864;28;20049;-69
2022/02/15 04:25:13;;;;;;;9.77;3.75;;;;;;;;;;5029223;28;20049;-69
2022/02/15 04:27:40;;;;;;;10.30;3.78;;;;;;;;;;5020484;28;20144;-68
2022/02/15 04:30:07;;;;;;;12.38;4.13;;;;;;;;;;5027460;28;20160;-70
2022/02/15 04:32:33;;;;;;;10.48;4.20;;;;;;;;;;5028559;28;20100;-69
2022/02/15 04:35:00;;;;;;;8.07;4.03;;;;;;;;;;5013550;28;20902;-69
2022/02/15 04:37:26;;;;;;;9.75;3.95;;;;;;;;;;5026371;28;20092;-69
2022/02/15 04:39:52;;;;;;;8.77;3.88;;;;;;;;;;5021639;28;20095;-69
2022/02/15 04:42:19;;;;;;;13.35;4.03;;;;;;;;;;5028394;28;20096;-69
2022/02/15 04:44:47;;;;;;;8.20;3.47;;;;;;;;;;5026900;28;20057;-69
2022/02/15 04:47:13;;;;;;;7.18;3.78;;;;;;;;;;5018987;28;20509;-69
2022/02/15 04:49:39;;;;;;;7.68;3.97;;;;;;;;;;5024951;28;20270;-69
2022/02/15 04:52:06;;;;;;;8.52;3.38;;;;;;;;;;5021240;28;20148;-69
2022/02/15 04:54:32;;;;;;;13.90;4.45;;;;;;;;;;5026368;28;20045;-69
2022/02/15 04:56:59;;;;;;;8.45;3.88;;;;;;;;;;5021167;28;21088;-69
2022/02/15 04:59:25;;;;;;;12.52;4.72;;;;;;;;;;5026240;28;20076;-69
2022/02/15 05:01:51;;;;;;;12.63;5.50;;;;;;;;;;5021617;28;20136;-69
2022/02/15 05:07:03;;;;;;;10.27;4.85;;;;;;;;;;5028040;28;20084;-69
2022/02/15 05:09:31;;;;;;;12.82;5.13;;;;;;;;;;5021762;28;20107;-70
2022/02/15 05:11:57;;;;;;;11.35;5.38;;;;;;;;;;5027832;28;20176;-69
2022/02/15 05:14:24;;;;;;;9.70;5.68;;;;;;;;;;5017337;28;20140;-69
2022/02/15 05:16:50;;;;;;;14.32;7.00;;;;;;;;;;5022900;28;20077;-68
2022/02/15 05:19:16;;;;;;;13.05;6.38;;;;;;;;;;5019144;28;20589;-69
2022/02/15 05:21:43;;;;;;;15.43;6.28;;;;;;;;;;5025825;28;20092;-68
2022/02/15 05:24:09;;;;;;;19.05;7.35;;;;;;;;;;5027414;28;20045;-68
2022/02/15 05:26:35;;;;;;;13.50;6.55;;;;;;;;;;5020923;28;20104;-69
2022/02/15 05:29:02;;;;;;;19.98;8.18;;;;;;;;;;5022562;28;20136;-68
2022/02/15 05:31:28;;;;;;;14.70;7.82;;;;;;;;;;5015989;28;20077;-68
2022/02/15 05:33:55;;;;;;;22.05;8.70;;;;;;;;;;5026787;28;20669;-69
2022/02/15 05:36:21;;;;;;;17.17;8.68;;;;;;;;;;5021664;28;20407;-69
2022/02/15 05:38:48;;;;;;;20.30;10.68;;;;;;;;;;5022899;28;20092;-68
2022/02/15 05:41:14;;;;;;;18.25;10.27;;;;;;;;;;5026076;28;20136;-68
2022/02/15 05:43:40;;;;;;;23.88;10.93;;;;;;;;;;5014592;28;20049;-69
2022/02/15 05:46:07;;;;;;;21.23;10.95;;;;;;;;;;5022506;28;20465;-68
2022/02/15 05:48:33;;;;;;;23.02;10.70;;;;;;;;;;5019632;28;20049;-69
2022/02/15 05:50:59;;;;;;;21.40;10.98;;;;;;;;;;5026906;28;20056;-69
2022/02/15 05:53:27;;;;;;;19.45;11.00;;;;;;;;;;5025675;28;20061;-68
2022/02/15 05:55:55;;;;;;;25.65;10.68;;;;;;;;;;5015531;28;20510;-69
2022/02/15 05:58:22;;;;;;;23.55;11.82;;;;;;;;;;5019899;28;20053;-68
2022/02/15 06:00:49;;;;;;;22.73;10.85;;;;;;;;;;5016739;28;20055;-69
2022/02/15 06:06:01;;;;;;;20.50;11.55;;;;;;;;;;5019228;28;20057;-68
2022/02/15 06:08:27;;;;;;;26.88;13.18;;;;;;;;;;5027060;28;20406;-69
2022/02/15 06:10:53;;;;;;;22.17;12.18;;;;;;;;;;5013867;28;20585;-68
2022/02/15 06:13:20;;;;;;;21.35;12.90;;;;;;;;;;5021350;28;20049;-68
2022/02/15 06:15:46;;;;;;;21.08;11.52;;;;;;;;;;5025471;28;20057;-68
2022/02/15 06:18:13;;;;;;;22.10;12.35;;;;;;;;;;5020130;28;20057;-69
2022/02/15 06:20:40;;;;;;;23.55;12.60;;;;;;;;;;5025669;28;20057;-68
2022/02/15 06:23:07;;;;;;;22.95;13.52;;;;;;;;;;5020124;28;20045;-69
2022/02/15 06:25:34;;;;;;;23.52;12.82;;;;;;;;;;5021840;28;20045;-68
2022/02/15 06:28:01;;;;;;;24.13;12.60;;;;;;;;;;5015545;28;20045;-68
2022/02/15 06:30:27;;;;;;;18.38;11.80;;;;;;;;;;5005011;28;20429;-68
2022/02/15 06:32:53;;;;;;;26.60;12.98;;;;;;;;;;5021060;28;20145;-68
2022/02/15 06:35:20;;;;;;;25.58;12.88;;;;;;;;;;5018300;28;20057;-68
2022/02/15 06:37:50;;;;;;;24.17;13.57;;;;;;;;;;5024649;28;20060;-68
2022/02/15 06:40:17;;;;;;;22.15;13.52;;;;;;;;;;5011920;28;20407;-69
2022/02/15 06:42:44;;;;;;;23.73;14.02;;;;;;;;;;5019013;28;20053;-68
2022/02/15 06:45:11;;;;;;;30.13;14.60;;;;;;;;;;5020116;28;20459;-68
2022/02/15 06:47:37;;;;;;;24.77;14.23;;;;;;;;;;5026449;28;20054;-68
2022/02/15 06:50:05;;;;;;;24.45;13.55;;;;;;;;;;5026012;28;20065;-68
2022/02/15 06:52:32;;;;;;;26.98;13.70;;;;;;;;;;5013218;28;20045;-69
2022/02/15 06:55:18;;;;;;;24.83;14.85;;;;;;;;;;5017736;28;20056;-68
2022/02/15 06:57:44;;;;;;;26.63;14.43;;;;;;;;;;5018854;28;20054;-68
2022/02/15 07:00:11;;;;;;;32.30;15.23;;;;;;;;;;5025962;28;20049;-68
2022/02/15 07:02:37;;;;;;;25.38;13.90;;;;;;;;;;5018263;28;20049;-68
2022/02/15 07:05:04;;;;;;;23.02;13.88;;;;;;;;;;5022166;28;20135;-68
2022/02/15 07:07:32;;;;;;;23.98;14.45;;;;;;;;;;5021951;28;20566;-68
2022/02/15 07:09:59;;;;;;;23.33;13.15;;;;;;;;;;5022955;28;20499;-68
2022/02/15 07:12:25;;;;;;;24.58;14.07;;;;;;;;;;5029949;28;20051;-69
2022/02/15 07:14:51;;;;;;;23.40;13.90;;;;;;;;;;5015254;28;20052;-68
2022/02/15 07:17:17;;;;;;;28.27;13.82;;;;;;;;;;5029589;28;20053;-69
2022/02/15 07:19:44;;;;;;;29.20;14.27;;;;;;;;;;5016756;28;20049;-68
2022/02/15 07:22:10;;;;;;;20.50;13.10;;;;;;;;;;5024272;28;20049;-69
2022/02/15 07:24:36;;;;;;;29.50;14.50;;;;;;;;;;5027324;28;20609;-69
2022/02/15 07:27:03;;;;;;;30.55;14.27;;;;;;;;;;5022276;28;20065;-69
2022/02/15 07:29:29;;;;;;;29.30;13.20;;;;;;;;;;5028073;28;20056;-69
2022/02/15 07:31:56;;;;;;;25.48;13.90;;;;;;;;;;5013240;28;20049;-68
2022/02/15 07:34:22;;;;;;;22.85;13.45;;;;;;;;;;5019341;28;20045;-68
2022/02/15 07:36:50;;;;;;;23.30;12.95;;;;;;;;;;5015650;28;20049;-69
2022/02/15 07:39:16;;;;;;;27.08;14.40;;;;;;;;;;5028068;28;20832;-69
2022/02/15 07:41:42;;;;;;;26.35;13.40;;;;;;;;;;5028468;28;20049;-69
2022/02/15 07:44:09;;;;;;;24.67;12.65;;;;;;;;;;5020661;28;20625;-69
2022/02/15 07:46:35;;;;;;;28.48;13.77;;;;;;;;;;5027416;28;20053;-68
2022/02/15 07:49:01;;;;;;;21.58;10.43;;;;;;;;;;5008373;28;20148;-68
2022/02/15 07:51:28;;;;;;;29.13;12.73;;;;;;;;;;5016918;28;20046;-69
2022/02/15 07:53:54;;;;;;;24.48;11.43;;;;;;;;;;5014690;28;20050;-68
2022/02/15 07:56:20;;;;;;;22.48;11.15;;;;;;;;;;5019743;28;20104;-68
2022/02/15 07:58:47;;;;;;;21.25;11.15;;;;;;;;;;5023145;28;20087;-68
2022/02/15 08:01:13;;;;;;;23.23;10.73;;;;;;;;;;5011415;28;20783;-68
2022/02/15 08:03:39;;;;;;;20.52;9.98;;;;;;;;;;5017500;28;20057;-68
2022/02/15 08:06:06;;;;;;;25.85;10.95;;;;;;;;;;5014371;28;20064;-69
2022/02/15 08:08:33;;;;;;;21.40;10.68;;;;;;;;;;5023777;28;20076;-68
2022/02/15 08:10:59;;;;;;;24.08;10.73;;;;;;;;;;5015676;28;20060;-68
2022/02/15 08:13:33;;;;;;;21.70;9.63;;;;;;;;;;5022682;28;20052;-68
2022/02/15 08:16:00;;;;;;;21.92;9.18;;;;;;;;;;5017306;28;20054;-68
2022/02/15 08:18:26;;;;;;;25.70;10.00;;;;;;;;;;5009279;28;20080;-68
2022/02/15 08:20:52;;;;;;;22.08;9.10;;;;;;;;;;5021750;28;20363;-68
2022/02/15 08:23:19;;;;;;;21.80;8.63;;;;;;;;;;5012686;28;20155;-68
2022/02/15 08:25:46;;;;;;;23.50;7.93;;;;;;;;;;5022399;28;20057;-68
2022/02/15 08:28:15;;;;;;;27.55;9.18;;;;;;;;;;5015736;28;20499;-68
2022/02/15 08:30:41;;;;;;;23.10;8.13;;;;;;;;;;5016545;28;20069;-68
2022/02/15 08:33:08;;;;;;;21.55;7.55;;;;;;;;;;5018086;28;20053;-68
2022/02/15 08:35:34;;;;;;;18.63;7.47;;;;;;;;;;5015145;28;20057;-70
2022/02/15 08:38:01;;;;;;;15.95;6.97;;;;;;;;;;5022705;28;20064;-69
2022/02/15 08:40:27;;;;;;;19.58;6.53;;;;;;;;;;5014991;28;20057;-69
2022/02/15 08:42:53;;;;;;;17.85;5.95;;;;;;;;;;5019452;28;20049;-69
2022/02/15 08:45:20;;;;;;;15.10;5.28;;;;;;;;;;5012160;28;20057;-68
2022/02/15 08:47:46;;;;;;;15.80;6.20;;;;;;;;;;5015906;28;20052;-69
2022/02/15 08:50:13;;;;;;;14.40;6.05;;;;;;;;;;5003356;28;20054;-69
2022/02/15 08:52:40;;;;;;;18.88;5.82;;;;;;;;;;4999272;28;20045;-69
2022/02/15 08:55:07;;;;;;;22.25;6.68;;;;;;;;;;5021530;28;20132;-69
2022/02/15 08:57:34;;;;;;;22.38;6.85;;;;;;;;;;5011258;28;20128;-69
2022/02/15 09:00:01;;;;;;;17.20;6.80;;;;;;;;;;5017311;28;20049;-69
2022/02/15 09:02:27;;;;;;;17.73;5.78;;;;;;;;;;5021632;28;20539;-69
2022/02/15 09:04:53;;;;;;;20.83;6.47;;;;;;;;;;5014299;28;20387;-69
2022/02/15 09:07:20;;;;;;;17.15;6.10;;;;;;;;;;5005216;28;20445;-69
2022/02/15 09:09:46;;;;;;;14.98;5.35;;;;;;;;;;5014160;28;20053;-69
2022/02/15 09:12:12;;;;;;;17.42;5.63;;;;;;;;;;5018358;28;20050;-69
2022/02/15 09:14:38;;;;;;;17.35;5.93;;;;;;;;;;5010656;28;20049;-69
2022/02/15 09:17:05;;;;;;;13.15;6.10;;;;;;;;;;5022313;28;20053;-69
2022/02/15 09:19:31;;;;;;;17.92;5.43;;;;;;;;;;5023507;28;20064;-69
2022/02/15 09:21:59;;;;;;;19.30;5.72;;;;;;;;;;5014976;28;20054;-69
2022/02/15 09:24:29;;;;;;;23.15;6.80;;;;;;;;;;5022445;28;20109;-69
2022/02/15 09:26:56;;;;;;;18.45;5.78;;;;;;;;;;5007546;28;20464;-69
2022/02/15 09:29:22;;;;;;;14.57;4.88;;;;;;;;;;5019570;28;20308;-69
2022/02/15 09:31:48;;;;;;;18.35;5.85;;;;;;;;;;5015323;28;20050;-69
2022/02/15 09:34:15;;;;;;;20.73;5.45;;;;;;;;;;5004058;28;20426;-68
2022/02/15 09:36:41;;;;;;;19.95;5.82;;;;;;;;;;5021945;28;20510;-69
2022/02/15 09:39:08;;;;;;;18.55;5.57;;;;;;;;;;5012500;28;20422;-69
2022/02/15 09:41:35;;;;;;;16.65;4.65;;;;;;;;;;5016568;28;20049;-68
2022/02/15 09:44:02;;;;;;;12.35;4.68;;;;;;;;;;5016133;28;20061;-69
2022/02/15 09:46:29;;;;;;;15.70;4.00;;;;;;;;;;5023306;28;20053;-69
2022/02/15 09:48:56;;;;;;;14.30;4.35;;;;;;;;;;5015574;28;20511;-69
2022/02/15 09:51:23;;;;;;;8.85;3.97;;;;;;;;;;5023491;28;20057;-69
2022/02/15 09:53:50;;;;;;;12.77;3.55;;;;;;;;;;5018540;28;20076;-68
2022/02/15 09:56:16;;;;;;;8.05;3.20;;;;;;;;;;5009312;28;20120;-69
2022/02/15 09:58:42;;;;;;;11.35;3.50;;;;;;;;;;5021567;28;20056;-68
2022/02/15 10:01:12;;;;;;;11.48;3.50;;;;;;;;;;5014014;28;20046;-68
2022/02/15 10:03:49;;;;;;;11.63;4.00;;;;;;;;;;5022279;28;20053;-69
2022/02/15 10:06:15;;;;;;;12.25;2.97;;;;;;;;;;5012189;28;20132;-68
2022/02/15 10:08:41;;;;;;;8.02;2.72;;;;;;;;;;5030110;28;20606;-69
2022/02/15 10:11:13;;;;;;;15.35;4.60;;;;;;;;;;5040421;28;20060;-69
2022/02/15 10:13:41;;;;;;;17.88;4.00;;;;;;;;;;5034703;28;20063;-68
2022/02/15 10:16:07;;;;;;;21.20;5.35;;;;;;;;;;5041188;28;20091;-69
2022/02/15 10:18:37;;;;;;;16.23;4.35;;;;;;;;;;5023374;28;20053;-69
2022/02/15 10:21:05;;;;;;;11.60;3.25;;;;;;;;;;5016670;28;20127;-69
2022/02/15 10:23:33;;;;;;;10.13;2.25;;;;;;;;;;5026807;28;20056;-69
2022/02/15 10:26:00;;;;;;;11.07;3.13;;;;;;;;;;5041513;28;20052;-69
2022/02/15 10:28:28;;;;;;;12.45;2.53;;;;;;;;;;5041896;28;20049;-69
2022/02/15 10:30:58;;;;;;;12.32;2.60;;;;;;;;;;5034178;28;20159;-69
2022/02/15 10:33:31;;;;;;;9.80;1.85;;;;;;;;;;5041787;28;20048;-68
2022/02/15 10:36:02;;;;;;;12.88;3.88;;;;;;;;;;5030713;28;20049;-68
2022/02/15 10:38:31;;;;;;;9.13;2.78;;;;;;;;;;5039786;28;20053;-69
2022/02/15 10:41:01;;;;;;;12.82;2.90;;;;;;;;;;5013850;28;20053;-69
2022/02/15 10:43:28;;;;;;;13.63;3.90;;;;;;;;;;5021889;28;20076;-69
2022/02/15 10:45:55;;;;;;;13.37;2.87;;;;;;;;;;5014182;28;20413;-69
2022/02/15 10:48:31;;;;;;;7.72;2.35;;;;;;;;;;5021038;28;20064;-69
2022/02/15 10:50:58;;;;;;;12.48;2.75;;;;;;;;;;5016784;28;20132;-68
2022/02/15 10:53:44;;;;;;;8.85;2.13;;;;;;;;;;5013693;28;20052;-68
2022/02/15 10:56:11;;;;;;;15.02;3.33;;;;;;;;;;5019440;28;20111;-69
2022/02/15 10:58:37;;;;;;;6.25;2.00;;;;;;;;;;5014632;28;20053;-69
2022/02/15 11:01:09;;;;;;;5.85;2.47;;;;;;;;;;5024932;28;20048;-69
2022/02/15 11:03:36;;;;;;;5.68;1.23;;;;;;;;;;5006689;28;20061;-68
2022/02/15 11:06:03;;;;;;;16.75;3.25;;;;;;;;;;5017195;28;20061;-69
2022/02/15 11:08:30;;;;;;;12.20;3.00;;;;;;;;;;5019720;28;20053;-69
2022/02/15 11:11:09;;;;;;;8.65;2.60;;;;;;;;;;5012234;28;20071;-69
2022/02/15 11:13:37;;;;;;;11.55;2.78;;;;;;;;;;5014087;28;20053;-69
2022/02/15 11:16:10;;;;;;;5.15;2.00;;;;;;;;;;5006924;28;20049;-69
2022/02/15 11:18:37;;;;;;;6.97;1.90;;;;;;;;;;5015590;28;20060;-69
2022/02/15 11:21:04;;;;;;;10.68;2.30;;;;;;;;;;5010822;28;20078;-69
2022/02/15 11:23:32;;;;;;;12.05;1.90;;;;;;;;;;5020035;28;20046;-69
2022/02/15 11:26:08;;;;;;;10.30;2.30;;;;;;;;;;5013540;28;20139;-69
2022/02/15 11:28:45;;;;;;;6.57;1.85;;;;;;;;;;5019504;28;20068;-69
2022/02/15 11:31:11;;;;;;;7.82;1.92;;;;;;;;;;5014729;28;20274;-68
2022/02/15 11:33:44;;;;;;;6.95;1.52;;;;;;;;;;5007213;28;20056;-69
2022/02/15 11:36:15;;;;;;;7.18;1.45;;;;;;;;;;5020275;28;20070;-68
2022/02/15 11:38:55;;;;;;;7.60;1.58;;;;;;;;;;5011669;28;20430;-69
2022/02/15 11:41:24;;;;;;;13.60;1.55;;;;;;;;;;5020067;28;20530;-69
2022/02/15 11:43:57;;;;;;;7.95;1.55;;;;;;;;;;5007398;28;20050;-69
2022/02/15 11:46:31;;;;;;;6.63;1.20;;;;;;;;;;5013711;28;20049;-69
2022/02/15 11:49:17;;;;;;;5.93;1.88;;;;;;;;;;4996222;28;20486;-68
2022/02/15 11:51:45;;;;;;;7.60;2.05;;;;;;;;;;5018571;28;20398;-69
2022/02/15 11:54:16;;;;;;;5.20;1.73;;;;;;;;;;5020449;28;20050;-69
2022/02/15 11:56:46;;;;;;;13.18;2.08;;;;;;;;;;5014411;28;20551;-68
2022/02/15 11:59:14;;;;;;;7.05;1.65;;;;;;;;;;5018802;28;20054;-68
2022/02/15 12:01:56;;;;;;;7.68;1.95;;;;;;;;;;5010369;28;20175;-68
2022/02/15 12:04:23;;;;;;;14.70;3.08;;;;;;;;;;5023124;28;20084;-68
2022/02/15 12:06:49;;;;;;;7.50;2.08;;;;;;;;;;5014784;28;20072;-69
2022/02/15 12:09:15;;;;;;;11.45;2.58;;;;;;;;;;5022953;28;20049;-69
2022/02/15 12:11:43;;;;;;;8.20;2.38;;;;;;;;;;5013642;28;20054;-68
2022/02/15 12:14:10;;;;;;;12.00;2.70;;;;;;;;;;5014965;28;20256;-69
2022/02/15 12:16:41;;;;;;;11.85;3.00;;;;;;;;;;5022798;28;20053;-68
2022/02/15 12:19:07;;;;;;;10.57;3.53;;;;;;;;;;5015447;28;20050;-69
2022/02/15 12:21:40;;;;;;;7.70;2.42;;;;;;;;;;5022330;28;20563;-68
2022/02/15 12:24:07;;;;;;;13.07;3.15;;;;;;;;;;5012085;28;20642;-69
2022/02/15 12:26:36;;;;;;;11.70;3.20;;;;;;;;;;5018026;28;20053;-69
2022/02/15 12:29:04;;;;;;;8.27;3.00;;;;;;;;;;5012633;28;20056;-69
2022/02/15 12:31:30;;;;;;;9.05;3.83;;;;;;;;;;5021158;28;20378;-68
2022/02/15 12:33:56;;;;;;;5.80;2.88;;;;;;;;;;5022464;28;20057;-68
2022/02/15 12:36:23;;;;;;;6.00;2.95;;;;;;;;;;5012818;28;20060;-68
2022/02/15 12:38:52;;;;;;;7.47;2.85;;;;;;;;;;5020251;28;20140;-68
2022/02/15 12:41:19;;;;;;;6.47;2.47;;;;;;;;;;5007374;28;20046;-68
2022/02/15 12:43:46;;;;;;;6.03;2.38;;;;;;;;;;5021182;28;20080;-68
2022/02/15 12:46:14;;;;;;;7.88;2.60;;;;;;;;;;5014524;28;20057;-68
2022/02/15 12:48:41;;;;;;;6.30;2.22;;;;;;;;;;5016226;28;20077;-68
2022/02/15 12:51:08;;;;;;;3.88;1.80;;;;;;;;;;5022340;28;20052;-68
2022/02/15 12:53:34;;;;;;;7.30;2.38;;;;;;;;;;5009574;28;20619;-68
2022/02/15 12:56:05;;;;;;;8.10;1.98;;;;;;;;;;5015836;28;20446;-68
2022/02/15 12:58:32;;;;;;;4.32;1.40;;;;;;;;;;5013786;28;20554;-68
2022/02/15 13:00:59;;;;;;;8.98;1.58;;;;;;;;;;5021759;28;20069;-68
2022/02/15 13:03:32;;;;;;;7.60;1.85;;;;;;;;;;5015968;28;20530;-68
2022/02/15 13:06:06;;;;;;;10.20;3.05;;;;;;;;;;5004898;28;20164;-68
2022/02/15 13:08:42;;;;;;;5.70;1.42;;;;;;;;;;5010857;28;20497;-69
2022/02/15 13:11:08;;;;;;;3.78;1.58;;;;;;;;;;5012024;28;20079;-68
2022/02/15 13:13:35;;;;;;;6.20;1.23;;;;;;;;;;5022819;28;20050;-68
2022/02/15 13:16:03;;;;;;;6.28;1.55;;;;;;;;;;5014331;28;20056;-68
2022/02/15 13:18:39;;;;;;;6.32;1.58;;;;;;;;;;5021657;28;20058;-68
2022/02/15 13:21:10;;;;;;;5.28;1.73;;;;;;;;;;5010187;28;20053;-68
2022/02/15 13:23:38;;;;;;;4.75;1.35;;;;;;;;;;5009292;28;20060;-68
2022/02/15 13:26:09;;;;;;;5.63;1.60;;;;;;;;;;5016607;28;20076;-68
2022/02/15 13:28:43;;;;;;;7.97;1.30;;;;;;;;;;5022474;28;20050;-69
2022/02/15 13:31:09;;;;;;;4.82;1.45;;;;;;;;;;5022057;28;20056;-68
2022/02/15 13:33:41;;;;;;;6.32;1.38;;;;;;;;;;5015655;28;20060;-68
2022/02/15 13:36:09;;;;;;;6.63;1.67;;;;;;;;;;5014943;28;20052;-68
2022/02/15 13:38:35;;;;;;;5.03;1.60;;;;;;;;;;5014227;28;20545;-68
2022/02/15 13:41:02;;;;;;;3.95;1.45;;;;;;;;;;5021844;28;20600;-69
2022/02/15 13:43:32;;;;;;;4.75;1.10;;;;;;;;;;5014779;28;20538;-68
2022/02/15 13:45:58;;;;;;;6.75;1.52;;;;;;;;;;5022207;28;20052;-68
2022/02/15 13:48:24;;;;;;;4.78;1.25;;;;;;;;;;5017336;28;20057;-68
2022/02/15 13:50:58;;;;;;;9.38;1.60;;;;;;;;;;5009288;28;20049;-68
2022/02/15 13:53:25;;;;;;;3.50;1.55;;;;;;;;;;5021156;28;20089;-68
2022/02/15 13:55:51;;;;;;;6.72;1.58;;;;;;;;;;4991342;28;20054;-68
2022/02/15 13:58:17;;;;;;;8.98;1.70;;;;;;;;;;5020532;28;20141;-68
2022/02/15 14:00:44;;;;;;;5.07;1.58;;;;;;;;;;4995369;28;20068;-68
2022/02/15 14:03:10;;;;;;;7.38;1.65;;;;;;;;;;4982991;28;20057;-68
2022/02/15 14:05:37;;;;;;;9.73;1.50;;;;;;;;;;5017272;28;20503;-68
2022/02/15 14:08:04;;;;;;;4.97;1.40;;;;;;;;;;5014101;28;20049;-68
2022/02/15 14:10:31;;;;;;;9.05;1.50;;;;;;;;;;5020672;28;20080;-68
2022/02/15 14:12:57;;;;;;;4.97;1.60;;;;;;;;;;5012509;28;20052;-68
2022/02/15 14:15:28;;;;;;;9.85;1.80;;;;;;;;;;5020552;28;20061;-68
2022/02/15 14:17:57;;;;;;;6.78;1.50;;;;;;;;;;5004522;28;20528;-68
2022/02/15 14:20:24;;;;;;;6.78;1.35;;;;;;;;;;5017264;28;20506;-68
2022/02/15 14:22:51;;;;;;;9.65;1.80;;;;;;;;;;5020793;28;20479;-68
2022/02/15 14:25:17;;;;;;;8.00;1.50;;;;;;;;;;5013579;28;20057;-68
2022/02/15 14:27:44;;;;;;;9.77;1.40;;;;;;;;;;5020713;28;20049;-68
2022/02/15 14:30:15;;;;;;;6.57;1.20;;;;;;;;;;5009997;28;20550;-68
2022/02/15 14:32:41;;;;;;;5.80;1.50;;;;;;;;;;5015372;28;20041;-68
2022/02/15 14:35:08;;;;;;;6.78;1.73;;;;;;;;;;5011674;28;20049;-68
2022/02/15 14:37:35;;;;;;;7.32;1.50;;;;;;;;;;5021131;28;20049;-68
2022/02/15 14:40:02;;;;;;;6.35;1.42;;;;;;;;;;5015261;28;20056;-68
2022/02/15 14:42:28;;;;;;;7.85;1.50;;;;;;;;;;5020865;28;20046;-68
2022/02/15 14:44:54;;;;;;;5.82;1.75;;;;;;;;;;5018363;28;20045;-68